Time;durP1;ratioP1;P1;durP2;ratioP2;P2;SDS_P1;SDS_P2;PMS_P1;PMS_P2;Temp;Humidity;BMP_temperature;BMP_pressure;BME280_temperature;BME280_humidity;BME280_pressure;Samples;Min_cycle;Max_cycle;Signal;HPM_P1;HPM_P2
2022/09/02 00:01:47;;;;;;;18.25;6.38;;;;;;;21.74;100.00;98676.03;5084288;28;20035;-95
2022/09/02 00:04:16;;;;;;;15.05;6.18;;;;;;;21.81;100.00;98676.53;5081936;28;20114;-92
2022/09/02 00:06:43;;;;;;;16.08;5.90;;;;;;;21.74;100.00;98676.03;5062801;28;20020;-92
2022/09/02 00:09:12;;;;;;;16.80;6.05;;;;;;;21.64;100.00;98674.81;5073612;28;20035;-92
2022/09/02 00:11:39;;;;;;;13.15;5.60;;;;;;;22.04;100.00;98679.69;5066206;28;20033;-91
2022/09/02 00:14:09;;;;;;;13.90;5.22;;;;;;;21.62;100.00;98677.56;5083348;28;20037;-94
2022/09/02 00:16:36;;;;;;;15.02;6.10;;;;;;;21.34;100.00;98672.03;5072322;28;20042;-93
2022/09/02 00:19:03;;;;;;;14.05;5.95;;;;;;;21.51;100.00;98666.66;5072359;28;20107;-93
2022/09/02 00:21:32;;;;;;;13.43;5.57;;;;;;;21.74;100.00;98661.88;5072964;28;20043;-93
2022/09/02 00:23:58;;;;;;;11.45;6.20;;;;;;;;;;5081755;28;20050;-92
2022/09/02 00:26:23;;;;;;;12.27;5.82;;;;;;;21.38;100.00;98662.94;5074875;28;20056;-93
2022/09/02 00:28:50;;;;;;;18.70;6.60;;;;;;;21.35;100.00;98660.47;5080720;28;20077;-92
2022/09/02 00:31:16;;;;;;;14.38;6.03;;;;;;;21.68;100.00;98655.13;5072809;28;20107;-92
2022/09/02 00:33:41;;;;;;;17.30;6.43;;;;;;;22.45;100.00;98663.13;5091280;28;20577;-93
2022/09/02 00:36:07;;;;;;;18.70;7.22;;;;;;;21.57;100.00;98654.88;5074742;28;20037;-92
2022/09/02 00:38:34;;;;;;;12.60;5.57;;;;;;;21.90;100.00;98654.75;5072288;28;20037;-95
2022/09/02 00:41:03;;;;;;;13.02;5.55;;;;;;;21.45;100.00;98651.94;5069550;28;20037;-96
2022/09/02 00:43:59;;;;;;;13.18;5.30;;;;;;;21.52;100.00;98647.19;5071469;28;20480;-93
2022/09/02 00:46:27;;;;;;;16.20;5.90;;;;;;;22.05;100.00;98646.88;5065660;28;20124;-93
2022/09/02 00:49:09;;;;;;;18.75;6.18;;;;;;;21.99;100.00;98645.44;5068872;28;20585;-93
2022/09/02 00:52:03;;;;;;;19.25;5.90;;;;;;;21.69;100.00;98634.75;5086567;28;20090;-93
2022/09/02 00:54:31;;;;;;;16.52;6.85;;;;;;;20.60;100.00;98635.22;5069815;28;20559;-92
2022/09/02 00:56:59;;;;;;;17.48;6.70;;;;;;;20.17;100.00;98626.00;5068011;28;20044;-93
2022/09/02 00:59:37;;;;;;;15.93;6.35;;;;;;;19.47;100.00;98609.94;5072594;28;20029;-93
2022/09/02 01:02:02;;;;;;;21.25;6.40;;;;;;;19.37;100.00;98613.06;5087926;28;20040;-93
2022/09/02 01:04:28;;;;;;;19.70;6.80;;;;;;;19.21;100.00;98606.78;5073374;28;20055;-93
2022/09/02 01:06:53;;;;;;;17.48;6.75;;;;;;;19.51;100.00;98620.34;5079375;28;20032;-92
2022/09/02 01:09:22;;;;;;;18.90;6.82;;;;;;;19.17;100.00;98600.75;5068135;28;20051;-94
2022/09/02 01:11:53;;;;;;;18.05;6.70;;;;;;;19.09;100.00;98597.63;5071684;28;20029;-93
2022/09/02 01:14:20;;;;;;;18.90;7.25;;;;;;;19.16;100.00;98599.03;5071409;28;20053;-92
2022/09/02 01:16:55;;;;;;;17.63;7.13;;;;;;;19.27;100.00;98595.91;5071667;28;20029;-93
2022/09/02 01:19:37;;;;;;;20.23;7.15;;;;;;;19.25;100.00;98587.19;5065967;28;20127;-94
2022/09/02 01:22:26;;;;;;;19.20;7.28;;;;;;;18.98;100.00;98584.88;5074756;28;20021;-93
2022/09/02 01:24:55;;;;;;;15.13;6.97;;;;;;;20.00;100.00;98593.28;5073824;28;20098;-93
2022/09/02 01:27:22;;;;;;;24.65;7.97;;;;;;;19.45;100.00;98578.28;5079029;28;20036;-94
2022/09/02 01:29:54;;;;;;;21.70;7.57;;;;;;;19.71;100.00;98584.13;5072375;28;20025;-92
2022/09/02 01:32:22;;;;;;;15.68;7.28;;;;;;;19.69;100.00;98584.16;5070053;28;20037;-94
2022/09/02 01:34:48;;;;;;;16.63;7.80;;;;;;;19.25;100.00;98580.09;5075027;28;20024;-95
2022/09/02 01:37:14;;;;;;;16.50;8.30;;;;;;;18.96;100.00;98577.97;5073741;28;20028;-94
2022/09/02 01:39:39;;;;;;;21.65;7.97;;;;;;;19.25;100.00;98574.81;5088557;28;20044;-91
2022/09/02 01:42:09;;;;;;;19.73;7.47;;;;;;;19.00;100.00;98577.75;5070417;28;20161;-92
2022/09/02 01:44:42;;;;;;;20.25;9.25;;;;;;;19.20;100.00;98573.31;5069802;28;20187;-96
2022/09/02 01:47:12;;;;;;;19.90;7.47;;;;;;;19.03;100.00;98574.13;5086209;28;20024;-93
2022/09/02 01:49:39;;;;;;;19.13;8.43;;;;;;;19.61;100.00;98576.63;5075349;28;20035;-93
2022/09/02 01:52:04;;;;;;;19.20;8.40;;;;;;;18.85;100.00;98565.22;5064804;28;20036;-92
2022/09/02 01:54:30;;;;;;;22.02;8.95;;;;;;;19.14;100.00;98569.19;5068545;28;20398;-93
2022/09/02 01:56:56;;;;;;;23.92;9.98;;;;;;;19.16;100.00;98556.75;5078712;28;20803;-92
2022/09/02 01:59:21;;;;;;;24.70;9.93;;;;;;;20.05;100.00;98561.28;5075693;28;20369;-92
2022/09/02 02:01:47;;;;;;;26.35;10.65;;;;;;;20.24;100.00;98554.09;5075840;28;20123;-93
2022/09/02 02:04:12;;;;;;;23.27;11.80;;;;;;;19.60;100.00;98555.53;5071293;28;20572;-93
2022/09/02 02:06:43;;;;;;;33.42;12.30;;;;;;;20.82;100.00;98545.81;5074448;28;20043;-93
2022/09/02 02:09:10;;;;;;;27.20;12.68;;;;;;;20.55;100.00;98546.31;5071814;28;20381;-93
2022/09/02 02:11:37;;;;;;;24.23;12.07;;;;;;;20.49;100.00;98549.28;5068451;28;20130;-93
2022/09/02 02:14:04;;;;;;;24.05;12.13;;;;;;;20.43;100.00;98539.88;5074403;28;20585;-93
2022/09/02 02:16:31;;;;;;;27.02;11.15;;;;;;;20.61;100.00;98533.63;5070572;28;20025;-92
2022/09/02 02:18:58;;;;;;;23.38;10.82;;;;;;;20.65;100.00;98539.59;5073393;28;20515;-93
2022/09/02 02:21:24;;;;;;;25.30;11.80;;;;;;;20.44;100.00;98537.13;5058550;28;20021;-93
2022/09/02 02:23:50;;;;;;;22.92;12.15;;;;;;;20.84;100.00;98534.19;5061898;28;20150;-94
2022/09/02 02:26:17;;;;;;;26.55;12.02;;;;;;;20.75;100.00;98539.97;5057592;28;20504;-92
2022/09/02 02:28:46;;;;;;;25.08;11.20;;;;;;;20.71;100.00;98534.00;5061400;28;20024;-92
2022/09/02 02:31:12;;;;;;;30.05;12.40;;;;;;;21.25;100.00;98527.50;5074165;28;20038;-92
2022/09/02 02:33:38;;;;;;;26.38;10.98;;;;;;;21.26;100.00;98522.13;5079609;28;20035;-93
2022/09/02 02:36:07;;;;;;;26.13;11.98;;;;;;;21.24;100.00;98524.00;5067627;28;20028;-93
2022/09/02 02:38:34;;;;;;;24.95;11.85;;;;;;;20.99;100.00;98516.59;5072777;28;20024;-93
2022/09/02 02:41:01;;;;;;;29.75;12.95;;;;;;;20.86;100.00;98516.38;5073727;28;20030;-94
2022/09/02 02:43:27;;;;;;;25.30;12.02;;;;;;;21.41;100.00;98514.25;5074673;28;20676;-93
2022/09/02 02:45:53;;;;;;;30.13;12.70;;;;;;;21.12;100.00;98519.41;5068666;28;20064;-93
2022/09/02 02:48:20;;;;;;;32.60;13.32;;;;;;;20.71;100.00;98515.47;5073078;28;20037;-93
2022/09/02 02:50:45;;;;;;;32.92;13.20;;;;;;;21.27;100.00;98507.91;5069102;28;20055;-94
2022/09/02 02:53:20;;;;;;;30.27;12.00;;;;;;;21.79;100.00;98511.19;5070669;28;20338;-93
2022/09/02 02:55:46;;;;;;;29.92;11.98;;;;;;;21.45;100.00;98513.97;5058660;28;20481;-94
2022/09/02 02:58:12;;;;;;;29.50;13.52;;;;;;;21.25;100.00;98512.47;5073306;28;20102;-95
2022/09/02 03:00:40;;;;;;;24.20;11.18;;;;;;;21.35;100.00;98511.94;5072361;28;20025;-95
2022/09/02 03:03:08;;;;;;;30.05;13.30;;;;;;;20.94;100.00;98508.03;5074829;28;20020;-94
2022/09/02 03:05:36;;;;;;;26.27;12.90;;;;;;;21.46;100.00;98510.38;5080871;28;20062;-93
2022/09/02 03:08:04;;;;;;;30.13;12.75;;;;;;;21.20;100.00;98508.38;5066979;28;20024;-93
2022/09/02 03:10:34;;;;;;;24.33;12.45;;;;;;;20.92;100.00;98504.63;5071302;28;20029;-95
2022/09/02 03:13:00;;;;;;;33.75;14.65;;;;;;;21.23;100.00;98495.78;5075972;28;20056;-95
2022/09/02 03:15:26;;;;;;;27.52;14.63;;;;;;;21.91;100.00;98496.34;5070322;28;20107;-92
2022/09/02 03:17:54;;;;;;;36.03;14.23;;;;;;;21.28;100.00;98490.19;5067279;28;20031;-95
2022/09/02 03:20:21;;;;;;;30.70;13.20;;;;;;;21.51;100.00;98491.53;5079120;28;20043;-92
2022/09/02 03:22:48;;;;;;;29.98;14.13;;;;;;;21.13;100.00;98495.44;5087160;28;20021;-93
2022/09/02 03:25:16;;;;;;;30.48;14.27;;;;;;;21.24;100.00;98497.50;5082436;28;20021;-94
2022/09/02 03:27:45;;;;;;;34.22;14.48;;;;;;;20.90;100.00;98491.41;5082121;28;20024;-94
2022/09/02 03:30:15;;;;;;;31.02;14.70;;;;;;;20.73;100.00;98489.72;5076854;28;20063;-94
2022/09/02 03:32:41;;;;;;;35.45;14.77;;;;;;;21.08;100.00;98481.56;5093293;28;20024;-95
2022/09/02 03:35:17;;;;;;;36.90;15.35;;;;;;;21.24;100.00;98483.34;5083749;28;20044;-94
2022/09/02 03:37:50;;;;;;;34.50;15.63;;;;;;;21.81;100.00;98483.59;5093205;28;20032;-95
2022/09/02 03:40:20;;;;;;;35.35;15.85;;;;;;;21.79;100.00;98481.97;5076740;28;20100;-95
2022/09/02 03:46:25;;;;;;;34.83;15.73;;;;;;;21.47;100.00;98469.66;5086111;28;20106;-95
2022/09/02 03:48:50;;;;;;;36.95;16.10;;;;;;;21.55;100.00;98469.22;5078780;28;20123;-94
2022/09/02 03:51:18;;;;;;;38.78;15.88;;;;;;;21.26;100.00;98479.69;5090951;28;20385;-95
2022/09/02 03:53:44;;;;;;;36.22;15.35;;;;;;;21.19;100.00;98469.53;5099848;28;20028;-93
2022/09/02 03:56:14;;;;;;;38.47;15.77;;;;;;;21.78;100.00;98467.88;5081621;28;20080;-94
2022/09/02 03:58:41;;;;;;;38.05;16.50;;;;;;;21.61;100.00;98473.31;5083430;28;20021;-95
2022/09/02 04:01:07;;;;;;;38.13;17.33;;;;;;;21.57;100.00;98459.38;5080375;28;20068;-93
2022/09/02 04:03:33;;;;;;;54.55;18.20;;;;;;;20.87;100.00;98459.78;5075244;28;20025;-94
2022/09/02 04:05:59;;;;;;;51.72;16.85;;;;;;;21.12;100.00;98453.94;5081233;28;20086;-95
2022/09/02 04:08:25;;;;;;;53.40;17.63;;;;;;;21.26;100.00;98455.81;5084974;28;20028;-94
2022/09/02 04:10:55;;;;;;;34.50;15.25;;;;;;;21.84;100.00;98453.38;5078363;28;20051;-96
2022/09/02 04:13:20;;;;;;;87.47;19.65;;;;;;;21.63;100.00;98452.84;5083418;28;20056;-93
2022/09/02 04:15:48;;;;;;;48.20;17.60;;;;;;;21.55;100.00;98455.09;5084381;28;20027;-95
2022/09/02 04:18:16;;;;;;;60.92;18.70;;;;;;;21.47;100.00;98450.19;5072250;28;20039;-96
2022/09/02 04:20:42;;;;;;;90.25;19.52;;;;;;;21.44;100.00;98453.03;5088571;28;20059;-96
2022/09/02 04:23:08;;;;;;;78.80;18.00;;;;;;;21.09;100.00;98445.34;5084398;28;20107;-96
2022/09/02 04:25:40;;;;;;;122.45;21.67;;;;;;;21.07;100.00;98444.56;5083605;28;20044;-96
2022/09/02 04:28:09;;;;;;;91.50;22.27;;;;;;;20.77;100.00;98446.19;5092438;28;20024;-96
2022/09/02 04:30:38;;;;;;;114.97;22.10;;;;;;;20.76;100.00;98439.19;5083484;28;20033;-96
2022/09/02 04:33:04;;;;;;;253.27;27.63;;;;;;;20.41;100.00;98452.56;5080056;28;20025;-96
2022/09/02 04:35:31;;;;;;;166.45;23.45;;;;;;;20.76;100.00;98449.78;5086031;28;20021;-95
2022/09/02 04:37:58;;;;;;;119.25;23.60;;;;;;;20.93;100.00;98446.22;5087311;28;20035;-95
2022/09/02 04:40:26;;;;;;;198.95;26.50;;;;;;;20.82;100.00;98447.75;5085188;28;20074;-96
2022/09/02 04:42:55;;;;;;;230.60;27.85;;;;;;;20.96;100.00;98442.53;5076498;28;20024;-96
2022/09/02 04:45:22;;;;;;;192.85;26.17;;;;;;;21.04;100.00;98440.28;5087523;28;20032;-95
2022/09/02 04:47:48;;;;;;;203.18;25.33;;;;;;;21.24;100.00;98447.09;5092485;28;20055;-95
2022/09/02 04:50:16;;;;;;;111.60;23.08;;;;;;;21.31;100.00;98439.66;5094328;28;20039;-91
2022/09/02 04:52:42;;;;;;;117.57;21.67;;;;;;;21.17;100.00;98429.84;5083405;28;20060;-94
2022/09/02 04:55:11;;;;;;;152.52;24.60;;;;;;;21.35;100.00;98443.84;5078625;28;20115;-96
2022/09/02 04:57:37;;;;;;;101.32;22.10;;;;;;;21.20;100.00;98450.03;5091799;28;20028;-96
2022/09/02 05:00:06;;;;;;;162.70;24.15;;;;;;;21.44;100.00;98447.75;5092163;28;20028;-94
2022/09/02 05:02:32;;;;;;;209.52;26.25;;;;;;;21.02;100.00;98446.63;5083857;28;20027;-96
2022/09/02 05:04:58;;;;;;;145.05;24.00;;;;;;;21.05;100.00;98441.16;5079858;28;20080;-96
2022/09/02 05:07:26;;;;;;;191.30;28.20;;;;;;;20.83;100.00;98438.84;5106661;28;20028;-95
2022/09/02 05:09:58;;;;;;;125.88;24.90;;;;;;;20.70;100.00;98441.34;5069151;28;20070;-94
2022/09/02 05:12:26;;;;;;;127.85;24.40;;;;;;;21.15;100.00;98437.00;5066494;28;20036;-95
2022/09/02 05:14:55;;;;;;;212.98;25.50;;;;;;;21.00;100.00;98436.09;5079245;28;20032;-94
2022/09/02 05:17:21;;;;;;;347.85;35.17;;;;;;;21.02;100.00;98436.88;5073202;28;20020;-94
2022/09/02 05:19:48;;;;;;;295.55;29.83;;;;;;;21.05;100.00;98434.03;5062715;28;20075;-95
2022/09/02 05:22:14;;;;;;;347.27;33.42;;;;;;;20.93;100.00;98427.66;5060843;28;20039;-94
2022/09/02 05:24:41;;;;;;;357.70;33.15;;;;;;;20.81;100.00;98431.00;5081757;28;20037;-92
2022/09/02 05:27:07;;;;;;;222.60;27.67;;;;;;;21.34;100.00;98435.97;5076279;28;20081;-93
2022/09/02 05:29:33;;;;;;;188.00;25.92;;;;;;;21.31;100.00;98429.88;5067242;28;20032;-92
2022/09/02 05:31:59;;;;;;;293.30;30.60;;;;;;;20.80;100.00;98439.88;5064688;28;20035;-95
2022/09/02 05:34:25;;;;;;;382.67;37.88;;;;;;;20.90;100.00;98434.91;5060784;28;20546;-96
2022/09/02 05:36:50;;;;;;;255.85;27.20;;;;;;;20.84;100.00;98429.97;5066204;28;20059;-95
2022/09/02 05:39:16;;;;;;;294.77;32.97;;;;;;;20.23;100.00;98435.00;5073454;28;20154;-92
2022/09/02 05:41:41;;;;;;;238.45;30.95;;;;;;;20.48;100.00;98434.53;5068563;28;21443;-92
2022/09/02 05:44:07;;;;;;;192.82;28.20;;;;;;;21.04;100.00;98428.81;5073224;28;20059;-94
2022/09/02 05:47:28;;;;;;;175.20;28.63;;;;;;;19.56;100.00;98432.28;5067841;28;20047;-93
2022/09/02 05:49:54;;;;;;;187.27;27.45;;;;;;;18.90;100.00;98424.06;5075214;28;20032;-93
2022/09/02 05:52:20;;;;;;;151.18;24.55;;;;;;;18.70;100.00;98417.06;5065244;28;20541;-92
2022/09/02 05:54:46;;;;;;;109.55;24.63;;;;;;;18.89;100.00;98426.78;5062720;28;20091;-92
2022/09/02 05:57:15;;;;;;;147.32;26.33;;;;;;;19.12;100.00;98422.16;5065381;28;20024;-93
2022/09/02 05:59:42;;;;;;;213.95;29.30;;;;;;;18.93;100.00;98426.56;5065167;28;20110;-93
2022/09/02 06:02:10;;;;;;;106.22;24.73;;;;;;;19.12;100.00;98428.28;5065110;28;20028;-93
2022/09/02 06:04:40;;;;;;;59.72;23.98;;;;;;;19.33;100.00;98429.03;5065686;28;20028;-92
2022/09/02 06:07:06;;;;;;;91.18;24.75;;;;;;;18.97;100.00;98432.56;5066144;28;20032;-93
2022/09/02 06:09:32;;;;;;;166.90;27.08;;;;;;;20.76;100.00;98436.53;5060241;28;20028;-93
2022/09/02 06:11:57;;;;;;;83.32;23.85;;;;;;;21.38;100.00;98430.38;5072710;28;20075;-93
2022/09/02 06:14:25;;;;;;;113.88;25.23;;;;;;;21.38;100.00;98427.72;5067083;28;20036;-93
2022/09/02 06:16:53;;;;;;;155.10;26.15;;;;;;;20.37;100.00;98427.16;5064572;28;20017;-91
2022/09/02 06:19:20;;;;;;;89.40;22.65;;;;;;;20.33;100.00;98425.63;5068456;28;20042;-94
2022/09/02 06:21:48;;;;;;;168.32;25.52;;;;;;;19.51;100.00;98431.66;5061914;28;20036;-93
2022/09/02 06:24:13;;;;;;;118.10;25.50;;;;;;;19.54;100.00;98431.50;5064134;28;20020;-93
2022/09/02 06:26:40;;;;;;;76.97;24.02;;;;;;;20.97;100.00;98428.31;5063818;28;20448;-93
2022/09/02 06:29:07;;;;;;;110.82;23.08;;;;;;;20.63;100.00;98424.91;5058805;28;20028;-92
2022/09/02 06:31:32;;;;;;;67.75;22.92;;;;;;;21.09;100.00;98438.22;5059034;28;20048;-93
2022/09/02 06:33:59;;;;;;;107.65;24.67;;;;;;;20.83;100.00;98425.59;5063348;28;20067;-92
2022/09/02 06:36:26;;;;;;;110.57;23.90;;;;;;;21.21;100.00;98425.19;5070522;28;20099;-93
2022/09/02 06:38:54;;;;;;;71.07;23.98;;;;;;;21.38;100.00;98426.84;5061921;28;20028;-94
2022/09/02 06:41:30;;;;;;;100.57;24.50;;;;;;;19.70;100.00;98426.28;5063860;28;20033;-92
2022/09/02 06:43:59;;;;;;;83.90;22.20;;;;;;;20.70;100.00;98418.34;5061277;28;20032;-92
2022/09/02 06:46:30;;;;;;;65.93;22.70;;;;;;;21.31;100.00;98421.91;5069277;28;20499;-92
2022/09/02 06:48:55;;;;;;;69.50;21.08;;;;;;;21.10;100.00;98412.59;5067516;28;20063;-94
2022/09/02 06:51:34;;;;;;;87.13;21.48;;;;;;;20.71;100.00;98422.72;5067650;28;20051;-92
2022/09/02 06:54:01;;;;;;;55.95;23.00;;;;;;;20.83;100.00;98420.31;5059804;28;20037;-91
2022/09/02 06:57:11;;;;;;;60.25;21.42;;;;;;;21.07;100.00;98418.91;5067153;28;20029;-91
2022/09/02 06:59:37;;;;;;;65.68;21.30;;;;;;;21.13;100.00;98415.88;5079221;28;20028;-92
2022/09/02 07:02:03;;;;;;;50.80;21.38;;;;;;;21.53;100.00;98399.47;5070271;28;20020;-95
2022/09/02 07:07:12;;;;;;;71.35;23.58;;;;;;;21.25;100.00;98400.19;5066828;28;20035;-91
2022/09/02 07:09:38;;;;;;;54.78;21.40;;;;;;;21.19;100.00;98398.78;5079724;28;20032;-92
2022/09/02 07:12:03;;;;;;;59.78;21.08;;;;;;;21.31;100.00;98398.06;5068750;28;20032;-91
2022/09/02 07:14:29;;;;;;;55.40;20.60;;;;;;;20.96;100.00;98394.81;5066014;28;20024;-94
2022/09/02 07:16:58;;;;;;;64.03;21.75;;;;;;;21.29;100.00;98399.97;5072102;28;20085;-91
2022/09/02 07:19:25;;;;;;;53.20;21.92;;;;;;;20.80;100.00;98395.66;5068484;28;20507;-91
2022/09/02 07:21:51;;;;;;;50.03;21.45;;;;;;;21.46;100.00;98400.72;5071081;28;20033;-94
2022/09/02 07:24:17;;;;;;;50.85;21.77;;;;;;;21.25;100.00;98386.94;5067156;28;20445;-93
2022/09/02 07:26:43;;;;;;;44.35;22.25;;;;;;;21.54;100.00;98384.41;5079726;28;20047;-93
2022/09/02 07:29:10;;;;;;;53.67;22.80;;;;;;;21.11;100.00;98383.31;5069560;28;20024;-95
2022/09/02 07:31:38;;;;;;;54.85;23.67;;;;;;;21.73;100.00;98379.69;5096017;22;20104;-94
2022/09/02 07:34:05;;;;;;;50.30;22.02;;;;;;;21.73;100.00;98389.47;5009991;28;20038;-94
2022/09/02 07:36:33;;;;;;;49.80;23.20;;;;;;;21.17;100.00;98386.53;5010843;28;20110;-94
2022/09/02 07:39:00;;;;;;;48.40;22.27;;;;;;;21.37;100.00;98386.22;5008656;28;20223;-94
2022/09/02 07:41:26;;;;;;;53.70;21.83;;;;;;;20.79;100.00;98390.47;5007797;28;20030;-94
2022/09/02 07:43:53;;;;;;;50.45;23.02;;;;;;;21.96;100.00;98383.59;5009867;28;20119;-93
2022/09/02 07:46:21;;;;;;;46.05;20.85;;;;;;;21.68;100.00;98384.41;5009521;28;20168;-95
2022/09/02 07:48:49;;;;;;;43.08;21.25;;;;;;;20.08;100.00;98375.78;5007089;28;20083;-94
2022/09/02 07:51:17;;;;;;;47.75;20.15;;;;;;;20.29;100.00;98379.06;5022113;28;20486;-95
2022/09/02 07:53:43;;;;;;;47.40;19.83;;;;;;;20.28;100.00;98374.72;5008687;28;20030;-95
2022/09/02 07:56:12;;;;;;;43.05;19.33;;;;;;;20.27;100.00;98376.50;5013282;28;20476;-96
2022/09/02 07:58:39;;;;;;;34.45;19.20;;;;;;;21.91;100.00;98368.91;5014484;28;20041;-95
2022/09/02 08:01:07;;;;;;;38.63;19.15;;;;;;;21.95;100.00;98384.53;5014824;28;20030;-96
2022/09/02 08:03:33;;;;;;;37.47;18.42;;;;;;;22.33;100.00;98372.47;5010834;28;20042;-96
2022/09/02 08:05:59;;;;;;;37.60;18.80;;;;;;;21.81;100.00;98373.91;5020751;22;20042;-94
2022/09/02 08:08:31;;;;;;;34.78;17.88;;;;;;;21.84;100.00;98379.03;5011863;28;20549;-94
2022/09/02 08:10:58;;;;;;;38.92;19.65;;;;;;;21.44;100.00;98373.44;5007722;28;20030;-94
2022/09/02 08:13:24;;;;;;;35.90;17.73;;;;;;;21.26;100.00;98372.75;5027059;28;20045;-95
2022/09/02 08:15:53;;;;;;;38.70;18.00;;;;;;;21.63;100.00;98375.91;5010789;28;20092;-93
2022/09/02 08:18:23;;;;;;;32.38;17.65;;;;;;;22.01;100.00;98371.84;5025209;28;20805;-94
2022/09/02 08:20:52;;;;;;;30.67;16.27;;;;;;;22.06;100.00;98375.91;5004668;28;20505;-94
2022/09/02 08:23:17;;;;;;;31.73;16.42;;;;;;;22.27;100.00;98367.53;5024742;28;20018;-94
2022/09/02 08:25:44;;;;;;;31.13;16.55;;;;;;;22.16;100.00;98371.72;5010015;28;20029;-94
2022/09/02 08:28:09;;;;;;;38.35;17.40;;;;;;;22.62;100.00;98372.44;5010303;28;20545;-94
2022/09/02 08:30:35;;;;;;;34.38;16.65;;;;;;;22.57;100.00;98362.06;5010075;28;20033;-93
2022/09/02 08:33:00;;;;;;;28.08;15.38;;;;;;;22.39;100.00;98364.13;5005961;28;20029;-94
2022/09/02 08:35:26;;;;;;;26.20;15.85;;;;;;;22.28;100.00;98358.59;5006861;28;20026;-95
2022/09/02 08:37:51;;;;;;;29.58;16.35;;;;;;;22.34;100.00;98358.25;5007515;28;20036;-94
2022/09/02 08:40:26;;;;;;;32.28;17.65;;;;;;;22.43;100.00;98362.13;5012343;28;20432;-94
2022/09/02 08:42:54;;;;;;;29.27;16.15;;;;;;;23.06;100.00;98360.69;5008177;28;20047;-93
2022/09/02 08:45:36;;;;;;;28.17;15.65;;;;;;;22.93;100.00;98360.63;5008965;28;20171;-94
2022/09/02 08:48:19;;;;;;;26.42;15.30;;;;;;;21.78;100.00;98364.34;5008505;28;20509;-94
2022/09/02 08:50:46;;;;;;;27.48;16.23;;;;;;;21.83;100.00;98362.22;5019753;28;20136;-95
2022/09/02 08:53:33;;;;;;;24.20;15.38;;;;;;;23.43;100.00;98363.53;5006260;28;20038;-95
2022/09/02 08:56:02;;;;;;;28.73;15.35;;;;;;;23.64;100.00;98355.03;5004592;28;20022;-95
2022/09/02 08:58:38;;;;;;;26.08;15.05;;;;;;;23.96;100.00;98358.13;5004005;28;20037;-94
2022/09/02 09:01:17;;;;;;;23.35;13.75;;;;;;;23.20;100.00;98356.25;5004008;28;20114;-94
2022/09/02 09:03:50;;;;;;;26.33;13.70;;;;;;;24.36;100.00;98351.78;5005567;28;20034;-94
2022/09/02 09:06:33;;;;;;;25.45;14.05;;;;;;;23.73;100.00;98343.75;5012363;28;20445;-94
2022/09/02 09:09:11;;;;;;;25.55;13.43;;;;;;;24.64;100.00;98349.78;5007578;28;21455;-94
2022/09/02 09:11:44;;;;;;;23.05;13.30;;;;;;;23.90;100.00;98347.91;5005345;28;20037;-94
2022/09/02 09:14:37;;;;;;;21.85;13.18;;;;;;;23.99;100.00;98351.72;5005298;28;20147;-93
2022/09/02 09:17:18;;;;;;;19.75;11.57;;;;;;;24.73;100.00;98335.75;5009951;28;20112;-93
2022/09/02 09:19:57;;;;;;;20.50;12.43;;;;;;;25.40;100.00;98334.34;5005980;28;20048;-95
2022/09/02 09:22:32;;;;;;;17.88;11.55;;;;;;;24.72;100.00;98334.09;5012185;28;20033;-94
2022/09/02 09:24:59;;;;;;;22.15;11.95;;;;;;;24.91;100.00;98330.03;5007587;28;20504;-93
2022/09/02 09:27:28;;;;;;;21.30;11.85;;;;;;;24.18;100.00;98336.13;5005414;28;20038;-94
2022/09/02 09:29:53;;;;;;;17.92;10.15;;;;;;;23.63;100.00;98332.91;5019198;28;21129;-95
2022/09/02 09:32:32;;;;;;;17.45;11.05;;;;;;;23.46;100.00;98331.38;5007508;28;20108;-94
2022/09/02 09:35:06;;;;;;;17.10;9.98;;;;;;;22.93;100.00;98326.06;5001859;28;20045;-95
2022/09/02 09:37:39;;;;;;;19.92;9.43;;;;;;;24.11;100.00;98323.38;5007859;28;20030;-96
2022/09/02 09:40:37;;;;;;;23.77;10.35;;;;;;;23.82;100.00;98316.47;5003340;28;20132;-93
2022/09/02 09:43:09;;;;;;;16.33;9.30;;;;;;;24.14;100.00;98315.16;5003921;28;20120;-95
2022/09/02 09:45:40;;;;;;;17.03;10.40;;;;;;;23.56;100.00;98314.78;5015134;28;20034;-95
2022/09/02 09:48:27;;;;;;;16.48;9.40;;;;;;;24.01;100.00;98315.19;5030608;28;20029;-95
2022/09/02 09:50:57;;;;;;;16.55;9.18;;;;;;;24.07;100.00;98317.41;5022728;28;20037;-95
2022/09/02 09:53:27;;;;;;;16.23;9.30;;;;;;;24.86;100.00;98311.72;5030290;28;20030;-95
2022/09/02 09:56:06;;;;;;;17.45;10.13;;;;;;;23.22;100.00;98323.28;5022060;28;20026;-95
2022/09/02 09:58:42;;;;;;;18.80;9.73;;;;;;;24.07;100.00;98316.56;5014242;28;20049;-95
2022/09/02 10:01:18;;;;;;;16.63;9.40;;;;;;;24.99;100.00;98311.63;5038048;28;20041;-96
2022/09/02 10:04:03;;;;;;;15.38;8.65;;;;;;;23.87;100.00;98305.50;5041011;28;20060;-96
2022/09/02 10:06:32;;;;;;;14.10;8.43;;;;;;;25.04;100.00;98309.47;5034038;28;20106;-95
2022/09/02 10:09:23;;;;;;;19.30;7.88;;;;;;;25.14;100.00;98293.63;5021804;28;20022;-94
2022/09/02 10:12:07;;;;;;;16.58;7.65;;;;;;;24.88;100.00;98288.44;5018488;28;20041;-95
2022/09/02 10:14:48;;;;;;;15.48;7.38;;;;;;;24.31;100.00;98281.97;5017868;28;20065;-94
2022/09/02 10:17:31;;;;;;;13.07;6.43;;;;;;;25.18;100.00;98277.25;5028846;28;20030;-95
2022/09/02 10:20:03;;;;;;;12.35;6.28;;;;;;;25.01;100.00;98275.00;5038229;28;20041;-92
2022/09/02 10:22:52;;;;;;;14.93;7.18;;;;;;;25.22;100.00;98284.03;5011577;28;20120;-94
2022/09/02 10:25:27;;;;;;;12.60;6.95;;;;;;;25.41;100.00;98271.13;5003389;28;20036;-93
2022/09/02 10:28:02;;;;;;;12.05;6.53;;;;;;;24.50;100.00;98282.31;5011880;28;20034;-94
2022/09/02 10:30:35;;;;;;;13.00;6.03;;;;;;;25.30;100.00;98271.91;5003746;28;20034;-93
2022/09/02 10:33:38;;;;;;;13.25;6.40;;;;;;;24.90;100.00;98272.31;5015499;28;20049;-93
2022/09/02 10:36:15;;;;;;;12.80;6.15;;;;;;;24.34;100.00;98273.72;5003814;28;20034;-94
2022/09/02 10:38:43;;;;;;;16.30;5.70;;;;;;;24.67;100.00;98274.91;4994931;28;20041;-94
2022/09/02 10:41:45;;;;;;;13.13;5.65;;;;;;;24.94;100.00;98269.31;5006793;28;20501;-93
2022/09/02 10:44:19;;;;;;;15.15;6.45;;;;;;;25.24;100.00;98277.75;4995965;28;20045;-93
2022/09/02 10:47:05;;;;;;;12.95;5.28;;;;;;;25.50;100.00;98267.75;5003520;28;20030;-92
2022/09/02 10:49:50;;;;;;;14.55;5.22;;;;;;;25.33;100.00;98271.72;5009228;28;20056;-92
2022/09/02 10:52:18;;;;;;;14.88;6.25;;;;;;;25.05;100.00;98260.47;5023564;28;20108;-93
2022/09/02 10:55:13;;;;;;;12.82;5.90;;;;;;;26.24;100.00;98265.38;5004621;28;20033;-93
2022/09/02 10:57:58;;;;;;;12.60;4.70;;;;;;;26.95;100.00;98258.69;5021305;28;20037;-93
2022/09/02 11:00:27;;;;;;;9.77;4.72;;;;;;;26.87;100.00;98269.19;5002603;28;20131;-93
2022/09/02 11:03:24;;;;;;;16.00;4.93;;;;;;;26.18;100.00;98260.53;5003907;28;20115;-92
2022/09/02 11:05:57;;;;;;;13.73;4.88;;;;;;;24.64;100.00;98254.66;5003918;28;20075;-93
2022/09/02 11:08:39;;;;;;;10.57;5.05;;;;;;;25.89;100.00;98249.50;5001337;28;20066;-93
2022/09/02 11:11:21;;;;;;;10.32;4.85;;;;;;;25.86;100.00;98245.25;5002946;28;20096;-93
2022/09/02 11:14:08;;;;;;;10.52;4.38;;;;;;;26.13;100.00;98253.88;5008715;28;20038;-94
2022/09/02 11:16:40;;;;;;;12.95;4.82;;;;;;;25.40;100.00;98248.94;5001280;28;20486;-93
2022/09/02 11:19:28;;;;;;;9.57;4.20;;;;;;;26.72;100.00;98239.22;5018511;28;20038;-93
2022/09/02 11:22:13;;;;;;;10.52;4.60;;;;;;;26.11;100.00;98242.44;5022355;28;20076;-93
2022/09/02 11:24:43;;;;;;;10.75;4.63;;;;;;;26.83;100.00;98230.31;5012620;28;20041;-94
2022/09/02 11:27:27;;;;;;;12.88;4.35;;;;;;;27.12;100.00;98230.47;5004305;28;20117;-93
2022/09/02 11:30:26;;;;;;;9.48;4.18;;;;;;;25.86;100.00;98228.38;5009073;28;20026;-93
2022/09/02 11:32:56;;;;;;;9.48;4.13;;;;;;;26.24;100.00;98224.44;5006560;28;20044;-94
2022/09/02 11:35:28;;;;;;;11.07;3.95;;;;;;;26.46;100.00;98218.16;5005328;28;20025;-93